createdAt,value
2023-02-15T00:02:03.952Z,72.60
2023-02-15T00:04:46.957Z,67.95
2023-02-15T00:07:18.785Z,73.50
2023-02-15T00:09:47.540Z,68.22
2023-02-15T00:12:15.596Z,66.90
2023-02-15T00:14:43.159Z,67.90
2023-02-15T00:17:10.465Z,67.13
2023-02-15T00:19:37.797Z,67.00
2023-02-15T00:22:04.976Z,70.38
2023-02-15T00:24:32.189Z,67.40
2023-02-15T00:26:59.528Z,71.10
2023-02-15T00:29:27.195Z,74.72
2023-02-15T00:31:54.432Z,70.32
2023-02-15T00:34:27.558Z,67.25
2023-02-15T00:36:54.782Z,74.88
2023-02-15T00:39:22.299Z,69.47
2023-02-15T00:41:49.477Z,69.05
2023-02-15T00:44:17.038Z,71.40
2023-02-15T00:46:44.278Z,72.13
2023-02-15T00:49:11.795Z,71.50
2023-02-15T00:51:40.357Z,74.78
2023-02-15T00:54:08.156Z,74.80
2023-02-15T00:56:35.460Z,74.57
2023-02-15T00:59:03.116Z,74.57
2023-02-15T01:01:30.354Z,74.72
2023-02-15T01:03:57.800Z,77.55
2023-02-15T01:06:25.079Z,76.30
2023-02-15T01:08:52.337Z,74.22
2023-02-15T01:11:25.171Z,70.35
2023-02-15T01:13:55.688Z,73.03
2023-02-15T01:16:25.125Z,70.03
2023-02-15T01:18:52.506Z,73.38
2023-02-15T01:21:22.957Z,73.75
2023-02-15T01:23:50.332Z,75.67
2023-02-15T01:26:17.965Z,74.72
2023-02-15T01:28:46.092Z,75.18
2023-02-15T01:31:16.471Z,76.87
2023-02-15T01:33:46.430Z,71.83
2023-02-15T01:36:13.876Z,72.70
2023-02-15T01:38:41.366Z,73.25
2023-02-15T01:41:21.203Z,79.30
2023-02-15T01:43:57.824Z,84.32
2023-02-15T01:46:38.480Z,81.65
2023-02-15T01:49:15.784Z,85.28
2023-02-15T01:51:45.821Z,77.45
2023-02-15T01:54:22.095Z,79.20
2023-02-15T01:56:49.562Z,76.68
2023-02-15T01:59:21.620Z,75.90
2023-02-15T02:01:53.228Z,75.57
2023-02-15T02:04:38.762Z,74.27
2023-02-15T02:07:08.139Z,74.75
2023-02-15T02:09:36.658Z,66.30
2023-02-15T02:12:04.140Z,69.17
2023-02-15T02:14:31.675Z,61.88
2023-02-15T02:17:13.226Z,64.57
2023-02-15T02:20:02.369Z,68.60
2023-02-15T02:23:00.357Z,69.67
2023-02-15T02:25:51.977Z,70.23
2023-02-15T02:28:49.455Z,74.30
2023-02-15T02:31:47.682Z,61.83
2023-02-15T02:34:20.053Z,72.90
2023-02-15T02:37:38.466Z,68.97
2023-02-15T02:40:09.001Z,63.63
2023-02-15T02:42:41.231Z,59.85
2023-02-15T02:45:11.411Z,64.82
2023-02-15T02:47:48.596Z,74.10
2023-02-15T02:50:19.099Z,75.47
2023-02-15T02:52:48.767Z,66.05
2023-02-15T02:55:22.497Z,65.63
2023-02-15T02:57:54.572Z,63.53
2023-02-15T03:00:24.422Z,71.70
2023-02-15T03:02:56.698Z,62.00
2023-02-15T03:05:27.407Z,67.30
2023-02-15T03:07:57.856Z,61.63
2023-02-15T03:10:26.091Z,58.25
2023-02-15T03:12:55.166Z,62.72
2023-02-15T03:15:26.186Z,63.65
2023-02-15T03:18:03.661Z,58.47
2023-02-15T03:20:35.251Z,57.10
2023-02-15T03:23:11.894Z,57.25
2023-02-15T03:25:42.915Z,57.63
2023-02-15T03:28:16.491Z,57.38
2023-02-15T03:30:47.623Z,65.00
2023-02-15T03:33:15.966Z,56.90
2023-02-15T03:35:52.474Z,58.60
2023-02-15T03:38:26.598Z,58.88
2023-02-15T03:41:12.555Z,57.33
2023-02-15T03:43:51.695Z,58.35
2023-02-15T03:46:28.961Z,58.58
2023-02-15T03:49:07.959Z,59.73
2023-02-15T03:51:39.115Z,58.72
2023-02-15T03:54:14.470Z,59.72
2023-02-15T03:57:03.208Z,59.73
2023-02-15T03:59:49.158Z,59.08
2023-02-15T04:02:24.488Z,58.08
2023-02-15T04:04:51.641Z,59.40
2023-02-15T04:07:18.855Z,61.38
2023-02-15T04:10:24.214Z,60.10
2023-02-15T04:12:51.367Z,59.45
2023-02-15T04:15:37.170Z,58.05
2023-02-15T04:18:05.012Z,59.20
2023-02-15T04:20:51.088Z,59.58
2023-02-15T04:23:37.060Z,59.38
2023-02-15T04:26:07.332Z,60.20
2023-02-15T04:28:37.036Z,59.40
2023-02-15T04:31:04.225Z,61.40
2023-02-15T04:33:31.399Z,59.65
2023-02-15T04:35:58.610Z,58.20
2023-02-15T04:38:25.787Z,58.85
2023-02-15T04:40:53.675Z,59.92
2023-02-15T04:43:21.176Z,59.28
2023-02-15T04:45:50.475Z,61.17
2023-02-15T04:48:18.643Z,60.47
2023-02-15T04:50:46.017Z,60.23
2023-02-15T04:53:13.535Z,60.37
2023-02-15T04:55:40.760Z,62.30
2023-02-15T04:58:07.968Z,59.83
2023-02-15T05:00:35.112Z,60.33
2023-02-15T05:03:02.322Z,61.67
2023-02-15T05:05:29.465Z,61.30
2023-02-15T05:07:56.586Z,60.75
2023-02-15T05:10:23.795Z,60.77
2023-02-15T05:12:50.967Z,64.20
2023-02-15T05:15:18.248Z,62.08
2023-02-15T05:17:45.376Z,63.72
2023-02-15T05:20:12.644Z,61.95
2023-02-15T05:22:41.688Z,61.23
2023-02-15T05:25:28.535Z,60.75
2023-02-15T05:28:14.603Z,59.13
2023-02-15T05:30:42.121Z,58.90
2023-02-15T05:33:09.615Z,58.72
2023-02-15T05:35:36.798Z,58.47
2023-02-15T05:38:04.023Z,58.70
2023-02-15T05:40:31.173Z,59.55
2023-02-15T05:42:58.685Z,58.75
2023-02-15T05:45:26.166Z,58.85
2023-02-15T05:47:53.370Z,56.88
2023-02-15T05:50:20.642Z,60.15
2023-02-15T05:52:48.151Z,59.58
2023-02-15T05:55:15.703Z,60.50
2023-02-15T05:57:42.960Z,60.83
2023-02-15T06:00:10.865Z,58.20
2023-02-15T06:02:41.363Z,60.35
2023-02-15T06:05:08.758Z,59.63
2023-02-15T06:07:36.037Z,60.00
2023-02-15T06:10:04.081Z,59.87
2023-02-15T06:12:31.756Z,59.78
2023-02-15T06:14:58.972Z,56.30
2023-02-15T06:17:26.153Z,61.22
2023-02-15T06:19:53.301Z,58.85
2023-02-15T06:22:21.265Z,56.60
2023-02-15T06:24:48.503Z,57.70
2023-02-15T06:27:15.748Z,59.08
2023-02-15T06:29:42.902Z,58.05
2023-02-15T06:32:10.170Z,58.67
2023-02-15T06:34:37.428Z,56.70
2023-02-15T06:37:04.625Z,58.28
2023-02-15T06:39:32.503Z,56.00
2023-02-15T06:41:59.700Z,57.55
2023-02-15T06:44:27.031Z,56.38
2023-02-15T06:46:54.411Z,55.65
2023-02-15T06:49:21.591Z,57.72
2023-02-15T06:51:48.811Z,56.57
2023-02-15T06:54:16.036Z,54.80
2023-02-15T06:56:44.513Z,57.90
2023-02-15T06:59:11.822Z,57.70
2023-02-15T07:01:39.169Z,57.53
2023-02-15T07:04:06.532Z,53.65
2023-02-15T07:06:34.572Z,55.38
2023-02-15T07:09:02.052Z,53.90
2023-02-15T07:11:52.791Z,54.58
2023-02-15T07:14:20.017Z,55.55
2023-02-15T07:16:47.266Z,53.63
2023-02-15T07:19:14.534Z,55.22
2023-02-15T07:21:41.699Z,55.90
2023-02-15T07:24:08.830Z,56.83
2023-02-15T07:26:36.012Z,55.92
2023-02-15T07:29:03.580Z,55.60
2023-02-15T07:31:30.768Z,56.38
2023-02-15T07:33:57.975Z,53.95
2023-02-15T07:36:25.196Z,53.00
2023-02-15T07:38:52.426Z,52.83
2023-02-15T07:41:19.644Z,52.75
2023-02-15T07:43:46.892Z,54.07
2023-02-15T07:46:16.511Z,54.60
2023-02-15T07:48:44.440Z,54.78
2023-02-15T07:51:12.955Z,54.40
2023-02-15T07:53:40.250Z,51.83
2023-02-15T07:56:12.453Z,54.13
2023-02-15T07:58:51.666Z,55.80
2023-02-15T08:01:36.140Z,53.28
2023-02-15T08:04:06.543Z,53.63
2023-02-15T08:06:36.115Z,54.28
2023-02-15T08:09:10.372Z,53.95
2023-02-15T08:11:40.181Z,53.25
2023-02-15T08:14:11.349Z,53.80
2023-02-15T08:16:50.536Z,54.60
2023-02-15T08:19:25.126Z,51.55
2023-02-15T08:22:13.763Z,55.88
2023-02-15T08:24:42.068Z,55.38
2023-02-15T08:27:11.935Z,56.13
2023-02-15T08:29:40.346Z,48.67
2023-02-15T08:32:11.233Z,51.72
2023-02-15T08:34:42.752Z,53.67
2023-02-15T08:37:10.451Z,46.72
2023-02-15T08:39:37.800Z,46.47
2023-02-15T08:42:05.369Z,45.77
2023-02-15T08:44:32.633Z,45.17
2023-02-15T08:47:04.720Z,41.20
2023-02-15T08:49:32.397Z,34.80
2023-02-15T08:52:00.558Z,25.53
2023-02-15T08:54:27.825Z,24.75
2023-02-15T08:56:55.218Z,23.77
2023-02-15T08:59:24.076Z,24.25
2023-02-15T09:01:52.838Z,23.95
2023-02-15T09:04:21.490Z,23.50
2023-02-15T09:06:49.850Z,24.60
2023-02-15T09:09:18.385Z,24.53
2023-02-15T09:11:48.153Z,23.33
2023-02-15T09:14:25.445Z,24.92
2023-02-15T09:16:53.910Z,23.50
2023-02-15T09:19:23.383Z,24.75
2023-02-15T09:21:51.208Z,24.90
2023-02-15T09:24:18.654Z,27.95
2023-02-15T09:26:48.482Z,26.33
2023-02-15T09:29:17.541Z,23.42
2023-02-15T09:31:47.850Z,24.77
2023-02-15T09:34:18.032Z,26.25
2023-02-15T09:36:45.761Z,25.00
2023-02-15T09:39:15.941Z,23.38
2023-02-15T09:41:55.016Z,24.90
2023-02-15T09:44:40.812Z,24.53
2023-02-15T09:47:08.644Z,24.17
2023-02-15T09:49:47.510Z,24.42
2023-02-15T09:52:32.473Z,25.08
2023-02-15T09:55:14.661Z,24.90
2023-02-15T09:58:03.559Z,25.45
2023-02-15T10:00:57.136Z,26.40
2023-02-15T10:03:39.106Z,25.33
2023-02-15T10:06:48.378Z,24.90
2023-02-15T10:09:25.992Z,25.83
2023-02-15T10:12:17.507Z,25.50
2023-02-15T10:15:12.524Z,25.67
2023-02-15T10:18:01.196Z,26.20
2023-02-15T10:20:53.250Z,26.70
2023-02-15T10:23:23.273Z,26.30
2023-02-15T10:26:15.021Z,26.90
2023-02-15T10:28:52.409Z,25.90
2023-02-15T10:31:22.662Z,25.83
2023-02-15T10:34:02.871Z,23.83
2023-02-15T10:36:42.093Z,24.52
2023-02-15T10:39:39.252Z,24.50
2023-02-15T10:42:30.561Z,24.65
2023-02-15T10:45:11.390Z,23.33
2023-02-15T10:47:57.188Z,21.50
2023-02-15T10:50:36.863Z,23.58
2023-02-15T10:53:15.966Z,23.23
2023-02-15T10:56:12.571Z,24.33
2023-02-15T10:58:57.338Z,22.60
2023-02-15T11:01:55.510Z,24.23
2023-02-15T11:04:52.419Z,23.45
2023-02-15T11:07:23.645Z,24.13
2023-02-15T11:09:57.628Z,24.10
2023-02-15T11:12:28.115Z,24.58
2023-02-15T11:15:04.688Z,25.00
2023-02-15T11:17:51.483Z,23.70
2023-02-15T11:20:49.963Z,25.85
2023-02-15T11:23:19.308Z,25.00
2023-02-15T11:25:52.584Z,24.70
2023-02-15T11:28:29.876Z,22.83
2023-02-15T11:30:59.011Z,24.85
2023-02-15T11:33:31.890Z,25.33
2023-02-15T11:36:05.027Z,24.50
2023-02-15T11:38:35.821Z,24.13
2023-02-15T11:41:12.840Z,25.23
2023-02-15T11:43:49.677Z,23.27
2023-02-15T11:46:16.943Z,25.02
2023-02-15T11:48:44.361Z,25.50
2023-02-15T11:51:23.759Z,25.60
2023-02-15T11:53:52.222Z,24.40
2023-02-15T11:56:22.883Z,25.58
2023-02-15T11:58:59.514Z,25.35
2023-02-15T12:01:33.888Z,24.88
2023-02-15T12:04:24.814Z,26.02
2023-02-15T12:07:29.574Z,26.13
2023-02-15T12:10:21.005Z,25.45
2023-02-15T12:13:11.797Z,27.10
2023-02-15T12:15:47.379Z,26.37
2023-02-15T12:18:40.097Z,26.35
2023-02-15T12:21:36.854Z,27.17
2023-02-15T12:24:19.319Z,27.38
2023-02-15T12:26:58.413Z,26.65
2023-02-15T12:29:31.351Z,28.17
2023-02-15T12:31:59.709Z,28.20
2023-02-15T12:34:32.971Z,27.23
2023-02-15T12:37:09.907Z,26.90
2023-02-15T12:39:37.205Z,28.20
2023-02-15T12:42:15.028Z,27.30
2023-02-15T12:44:55.182Z,27.95
2023-02-15T12:47:28.918Z,27.98
2023-02-15T12:50:18.284Z,27.95
2023-02-15T12:52:49.189Z,29.27
2023-02-15T12:55:31.057Z,28.45
2023-02-15T12:58:15.507Z,27.47
2023-02-15T13:00:42.738Z,28.23
2023-02-15T13:03:22.567Z,28.23
2023-02-15T13:05:54.169Z,27.73
2023-02-15T13:08:28.155Z,28.33
2023-02-15T13:11:04.341Z,29.20
2023-02-15T13:13:35.455Z,27.95
2023-02-15T13:16:11.796Z,29.07
2023-02-15T13:18:43.556Z,28.60
2023-02-15T13:21:13.513Z,28.92
2023-02-15T13:23:46.920Z,29.47
2023-02-15T13:26:19.745Z,28.20
2023-02-15T13:28:50.590Z,27.45
2023-02-15T13:31:24.687Z,27.23
2023-02-15T13:34:18.052Z,28.95
2023-02-15T13:37:13.235Z,28.23
2023-02-15T13:40:01.577Z,29.08
2023-02-15T13:42:41.471Z,28.50
2023-02-15T13:45:27.001Z,30.05
2023-02-15T13:48:01.925Z,30.10
2023-02-15T13:50:50.671Z,27.45
2023-02-15T13:53:39.780Z,29.83
2023-02-15T13:56:39.832Z,29.30
2023-02-15T13:59:41.343Z,29.92
2023-02-15T14:02:29.423Z,29.52
2023-02-15T14:05:37.210Z,29.87
2023-02-15T14:08:34.050Z,30.38
2023-02-15T14:11:33.322Z,29.33
2023-02-15T14:14:41.562Z,30.42
2023-02-15T14:17:16.197Z,30.10
2023-02-15T14:19:55.227Z,29.77
2023-02-15T14:22:47.969Z,30.85
2023-02-15T14:25:22.975Z,30.55
2023-02-15T14:28:05.158Z,31.00
2023-02-15T14:30:38.831Z,30.75
2023-02-15T14:33:08.229Z,30.08
2023-02-15T14:35:38.064Z,29.50
2023-02-15T14:38:24.681Z,29.23
2023-02-15T14:41:05.612Z,29.65
2023-02-15T14:43:48.330Z,28.58
2023-02-15T14:46:31.035Z,29.35
2023-02-15T14:49:23.522Z,28.48
2023-02-15T14:51:51.102Z,29.83
2023-02-15T14:54:18.291Z,29.58
2023-02-15T14:56:47.327Z,30.60
2023-02-15T14:59:21.666Z,29.35
2023-02-15T15:02:16.209Z,29.42
2023-02-15T15:05:09.403Z,28.90
2023-02-15T15:07:46.559Z,28.47
2023-02-15T15:10:20.754Z,29.45
2023-02-15T15:12:49.945Z,29.40
2023-02-15T15:15:30.505Z,28.30
2023-02-15T15:18:06.363Z,29.60
2023-02-15T15:20:42.787Z,28.30
2023-02-15T15:23:15.981Z,28.35
2023-02-15T15:25:52.790Z,28.67
2023-02-15T15:28:35.103Z,27.02
2023-02-15T15:31:20.906Z,27.73
2023-02-15T15:34:11.443Z,27.83
2023-02-15T15:37:06.349Z,28.33
2023-02-15T15:40:23.514Z,29.53
2023-02-15T15:42:59.940Z,28.80
2023-02-15T15:45:36.305Z,27.77
2023-02-15T15:48:13.790Z,27.67
2023-02-15T15:50:42.453Z,28.50
2023-02-15T15:53:22.078Z,27.90
2023-02-15T15:55:55.085Z,28.15
2023-02-15T15:58:23.402Z,27.02
2023-02-15T16:00:57.986Z,27.95
2023-02-15T16:03:28.694Z,28.03
2023-02-15T16:05:57.135Z,27.55
2023-02-15T16:08:39.990Z,26.13
2023-02-15T16:11:26.299Z,27.45
2023-02-15T16:13:54.306Z,26.30
2023-02-15T16:16:30.379Z,27.38
2023-02-15T16:19:00.379Z,27.33
2023-02-15T16:21:34.488Z,29.85
2023-02-15T16:24:18.515Z,29.17
2023-02-15T16:26:57.891Z,27.57
2023-02-15T16:29:32.248Z,27.53
2023-02-15T16:32:26.397Z,28.30
2023-02-15T16:35:02.965Z,27.85
2023-02-15T16:37:35.330Z,27.73
2023-02-15T16:40:02.860Z,29.13
2023-02-15T16:42:30.137Z,27.70
2023-02-15T16:45:25.488Z,27.17
2023-02-15T16:47:58.073Z,28.85
2023-02-15T16:50:31.589Z,28.58
2023-02-15T16:52:59.231Z,29.23
2023-02-15T16:55:36.012Z,28.40
2023-02-15T16:58:05.961Z,27.73
2023-02-15T17:00:37.783Z,28.55
2023-02-15T17:03:23.986Z,29.73
2023-02-15T17:05:57.549Z,29.63
2023-02-15T17:08:37.822Z,29.83
2023-02-15T17:11:05.465Z,29.75
2023-02-15T17:13:33.016Z,29.40
2023-02-15T17:16:00.497Z,31.08
2023-02-15T17:18:30.928Z,30.08
2023-02-15T17:21:01.412Z,28.50
2023-02-15T17:23:36.102Z,29.35
2023-02-15T17:26:23.545Z,29.45
2023-02-15T17:28:54.902Z,30.23
2023-02-15T17:31:24.946Z,30.35
2023-02-15T17:33:55.282Z,31.02
2023-02-15T17:36:24.452Z,31.30
2023-02-15T17:39:00.617Z,30.98
2023-02-15T17:41:33.667Z,29.70
2023-02-15T17:44:02.419Z,26.88
2023-02-15T17:46:35.415Z,29.75
2023-02-15T17:49:05.200Z,29.95
2023-02-15T17:51:35.764Z,31.00
2023-02-15T17:54:22.124Z,30.37
2023-02-15T17:56:49.267Z,29.60
2023-02-15T17:59:16.538Z,29.92
2023-02-15T18:02:05.664Z,27.60
2023-02-15T18:04:53.799Z,28.97
2023-02-15T18:07:39.777Z,29.20
2023-02-15T18:10:34.106Z,31.42
2023-02-15T18:13:01.352Z,31.07
2023-02-15T18:15:28.890Z,28.80
2023-02-15T18:17:56.503Z,29.00
2023-02-15T18:20:32.744Z,29.90
2023-02-15T18:23:01.925Z,30.33
2023-02-15T18:25:29.272Z,29.30
2023-02-15T18:27:56.845Z,29.23
2023-02-15T18:30:26.692Z,29.10
2023-02-15T18:32:57.198Z,28.73
2023-02-15T18:35:30.028Z,28.70
2023-02-15T18:37:59.741Z,28.40
2023-02-15T18:40:28.699Z,31.85
2023-02-15T18:42:57.136Z,30.65
2023-02-15T18:45:32.945Z,30.33
2023-02-15T18:48:00.400Z,30.10
2023-02-15T18:50:30.988Z,31.02
2023-02-15T18:52:58.296Z,31.27
2023-02-15T18:55:32.444Z,29.60
2023-02-15T18:58:01.026Z,30.48
2023-02-15T19:00:33.693Z,30.67
2023-02-15T19:03:04.864Z,30.15
2023-02-15T19:05:32.921Z,29.30
2023-02-15T19:08:01.764Z,26.40
2023-02-15T19:10:31.357Z,29.88
2023-02-15T19:12:58.673Z,28.55
2023-02-15T19:15:30.425Z,28.70
2023-02-15T19:17:57.801Z,28.80
2023-02-15T19:20:31.171Z,28.73
2023-02-15T19:23:01.444Z,28.73
2023-02-15T19:25:32.119Z,30.10
2023-02-15T19:27:59.494Z,28.85
2023-02-15T19:30:31.671Z,28.88
2023-02-15T19:32:59.956Z,29.77
2023-02-15T19:35:32.081Z,29.37
2023-02-15T19:38:02.640Z,29.08
2023-02-15T19:40:32.780Z,29.63
2023-02-15T19:43:00.141Z,28.80
2023-02-15T19:45:32.083Z,28.55
2023-02-15T19:48:01.375Z,28.65
2023-02-15T19:50:31.315Z,28.20
2023-02-15T19:52:58.946Z,27.53
2023-02-15T19:55:35.022Z,30.27
2023-02-15T19:58:10.948Z,28.92
2023-02-15T20:00:38.143Z,29.77
2023-02-15T20:03:05.917Z,29.27
2023-02-15T20:05:38.209Z,27.30
2023-02-15T20:08:09.900Z,28.08
2023-02-15T20:10:37.136Z,27.83
2023-02-15T20:13:04.273Z,26.17
2023-02-15T20:15:35.742Z,27.83
2023-02-15T20:18:04.014Z,27.77
2023-02-15T20:20:40.254Z,28.05
2023-02-15T20:23:17.749Z,27.10
2023-02-15T20:25:45.016Z,27.13
2023-02-15T20:28:20.686Z,27.10
2023-02-15T20:30:49.084Z,27.15
2023-02-15T20:33:17.489Z,27.23
2023-02-15T20:35:45.871Z,29.13
2023-02-15T20:38:24.691Z,26.60
2023-02-15T20:41:11.045Z,27.52
2023-02-15T20:43:39.659Z,26.52
2023-02-15T20:46:07.648Z,29.20
2023-02-15T20:48:35.412Z,29.60
2023-02-15T20:51:03.645Z,28.17
2023-02-15T20:53:31.045Z,28.17
2023-02-15T20:55:58.250Z,28.08
2023-02-15T20:58:28.461Z,28.50
2023-02-15T21:00:57.890Z,27.90
2023-02-15T21:03:30.239Z,28.27
2023-02-15T21:05:58.957Z,28.75
2023-02-15T21:08:27.092Z,26.77
2023-02-15T21:10:54.605Z,26.20
2023-02-15T21:13:29.543Z,29.00
2023-02-15T21:15:57.713Z,28.48
2023-02-15T21:18:30.779Z,25.63
2023-02-15T21:21:00.773Z,27.13
2023-02-15T21:23:38.424Z,28.33
2023-02-15T21:26:06.048Z,29.77
2023-02-15T21:28:33.315Z,28.33
2023-02-15T21:31:00.612Z,28.55
2023-02-15T21:33:27.879Z,29.02
2023-02-15T21:35:57.634Z,28.13
2023-02-15T21:38:29.104Z,29.20
2023-02-15T21:41:16.437Z,29.77
2023-02-15T21:44:02.267Z,27.58
2023-02-15T21:46:48.196Z,30.17
2023-02-15T21:49:16.026Z,28.23
2023-02-15T21:52:01.655Z,29.40
2023-02-15T21:54:28.875Z,29.92
2023-02-15T21:56:57.013Z,29.57
2023-02-15T21:59:27.026Z,29.20
2023-02-15T22:01:54.374Z,29.95
2023-02-15T22:04:29.958Z,29.00
2023-02-15T22:06:57.265Z,29.25
2023-02-15T22:09:27.150Z,28.25
2023-02-15T22:11:55.046Z,30.07
2023-02-15T22:14:31.083Z,29.45
2023-02-15T22:16:58.286Z,30.52
2023-02-15T22:19:25.493Z,28.70
2023-02-15T22:21:52.680Z,29.83
2023-02-15T22:24:19.918Z,29.67
2023-02-15T22:26:47.181Z,31.77
2023-02-15T22:29:17.392Z,29.40
2023-02-15T22:31:45.228Z,30.17
2023-02-15T22:34:27.736Z,31.15
2023-02-15T22:36:55.918Z,28.30
2023-02-15T22:39:24.654Z,29.30
2023-02-15T22:41:53.076Z,29.77
2023-02-15T22:44:29.209Z,29.40
2023-02-15T22:46:56.818Z,28.80
2023-02-15T22:49:24.027Z,28.67
2023-02-15T22:51:51.701Z,28.80
2023-02-15T22:54:19.753Z,29.55
2023-02-15T22:56:52.511Z,30.60
2023-02-15T22:59:21.599Z,28.42
2023-02-15T23:01:49.178Z,28.67
2023-02-15T23:04:23.990Z,28.60
2023-02-15T23:06:53.223Z,30.45
2023-02-15T23:09:20.887Z,29.83
2023-02-15T23:11:50.316Z,32.33
2023-02-15T23:14:32.356Z,31.10
2023-02-15T23:16:59.509Z,31.23
2023-02-15T23:19:27.528Z,31.95
2023-02-15T23:21:54.734Z,32.43
2023-02-15T23:24:26.827Z,33.40
2023-02-15T23:26:54.141Z,34.65
2023-02-15T23:29:23.551Z,34.25
2023-02-15T23:31:53.259Z,35.60
2023-02-15T23:34:26.948Z,38.53
2023-02-15T23:36:54.547Z,37.67
2023-02-15T23:39:45.725Z,38.38
2023-02-15T23:42:27.917Z,40.17
2023-02-15T23:44:55.904Z,41.47
2023-02-15T23:47:47.831Z,42.65
2023-02-15T23:50:21.238Z,44.78
2023-02-15T23:52:50.550Z,46.90
2023-02-15T23:55:18.409Z,46.05
2023-02-15T23:57:46.239Z,47.88
